Time;durP1;ratioP1;P1;durP2;ratioP2;P2;SDS_P1;SDS_P2;PMS_P1;PMS_P2;Temp;Humidity;BMP_temperature;BMP_pressure;BME280_temperature;BME280_humidity;BME280_pressure;Samples;Min_cycle;Max_cycle;Signal;HPM_P1;HPM_P2
2022/08/22 00:01:09;;;;;;;14.30;4.43;;;17.00;99.90;;;;;;5033977;28;20512;-77
2022/08/22 00:03:41;;;;;;;10.65;3.72;;;17.00;99.90;;;;;;5017675;28;20130;-76
2022/08/22 00:06:26;;;;;;;7.32;3.95;;;16.90;99.90;;;;;;5030751;28;20497;-77
2022/08/22 00:09:16;;;;;;;9.65;4.15;;;16.90;99.90;;;;;;5010944;28;20710;-77
2022/08/22 00:11:45;;;;;;;8.43;4.18;;;16.90;99.90;;;;;;5010704;28;20036;-76
2022/08/22 00:14:30;;;;;;;9.27;4.97;;;16.80;99.90;;;;;;5027193;28;20044;-76
2022/08/22 00:17:04;;;;;;;8.20;3.90;;;16.80;99.90;;;;;;5026433;28;20106;-77
2022/08/22 00:20:09;;;;;;;12.10;4.13;;;16.70;99.90;;;;;;5013307;28;20045;-76
2022/08/22 00:22:41;;;;;;;7.30;3.95;;;16.70;99.90;;;;;;5021059;28;20072;-76
2022/08/22 00:25:16;;;;;;;6.07;3.53;;;16.60;99.90;;;;;;5012406;28;20041;-77
2022/08/22 00:27:58;;;;;;;7.60;3.88;;;16.60;99.90;;;;;;5011871;28;20120;-77
2022/08/22 00:30:25;;;;;;;9.15;3.78;;;16.60;99.90;;;;;;5028361;28;20037;-77
2022/08/22 00:33:01;;;;;;;11.68;4.22;;;16.60;99.90;;;;;;5011603;28;20049;-77
2022/08/22 00:35:47;;;;;;;9.45;4.40;;;16.60;99.90;;;;;;5026365;28;20045;-77
2022/08/22 00:38:26;;;;;;;8.77;4.07;;;16.60;99.90;;;;;;5030023;28;20538;-77
2022/08/22 00:41:35;;;;;;;10.05;4.05;;;16.60;99.90;;;;;;5029849;28;20040;-77
2022/08/22 00:44:21;;;;;;;13.10;4.80;;;16.60;99.90;;;;;;5043191;28;20527;-77
2022/08/22 00:47:26;;;;;;;7.85;4.10;;;16.50;99.90;;;;;;5028672;28;20052;-77
2022/08/22 00:50:13;;;;;;;14.15;4.40;;;16.50;99.90;;;;;;4999231;28;20096;-77
2022/08/22 00:53:18;;;;;;;10.45;4.60;;;16.50;99.90;;;;;;5043536;28;20115;-77
2022/08/22 00:55:52;;;;;;;10.13;4.75;;;16.50;99.90;;;;;;5022512;28;21023;-77
2022/08/22 00:58:48;;;;;;;9.50;4.80;;;16.50;99.90;;;;;;5041996;28;20048;-77
2022/08/22 01:01:18;;;;;;;10.07;4.75;;;16.50;99.90;;;;;;5044434;28;20044;-77
2022/08/22 01:03:45;;;;;;;8.10;4.20;;;16.50;99.90;;;;;;5026312;28;20037;-77
2022/08/22 01:06:31;;;;;;;7.80;4.10;;;16.50;99.90;;;;;;5038206;28;20048;-77
2022/08/22 01:09:10;;;;;;;11.98;4.80;;;16.50;99.90;;;;;;5040821;28;20036;-76
2022/08/22 01:11:56;;;;;;;11.57;4.30;;;16.40;99.90;;;;;;5027455;28;20040;-77
2022/08/22 01:14:56;;;;;;;8.90;4.65;;;16.40;99.90;;;;;;5041499;28;20045;-76
2022/08/22 01:17:40;;;;;;;9.90;5.05;;;16.30;99.90;;;;;;5025343;28;20041;-77
2022/08/22 01:20:18;;;;;;;11.48;4.93;;;16.30;99.90;;;;;;5042082;28;20032;-77
2022/08/22 01:23:25;;;;;;;11.88;5.80;;;16.30;99.90;;;;;;5026280;28;20037;-77
2022/08/22 01:26:12;;;;;;;10.68;5.57;;;16.30;99.90;;;;;;4955352;28;20045;-77
2022/08/22 01:28:43;;;;;;;15.32;6.13;;;16.30;99.90;;;;;;4966142;28;20143;-77
2022/08/22 01:31:41;;;;;;;12.63;5.80;;;16.20;99.90;;;;;;5022451;28;20133;-77
2022/08/22 01:34:34;;;;;;;11.85;6.22;;;16.20;99.90;;;;;;5023029;28;20148;-77
2022/08/22 01:37:50;;;;;;;11.70;5.53;;;16.20;99.90;;;;;;5042826;28;20129;-77
2022/08/22 01:40:28;;;;;;;13.60;6.10;;;16.30;99.90;;;;;;4967632;28;20038;-77
2022/08/22 01:43:14;;;;;;;9.18;5.82;;;16.30;99.90;;;;;;5050805;28;20049;-77
2022/08/22 01:46:22;;;;;;;12.27;6.20;;;16.30;99.90;;;;;;5027097;28;20060;-77
2022/08/22 01:49:03;;;;;;;7.45;5.60;;;16.30;99.90;;;;;;5016438;28;20048;-77
2022/08/22 01:52:19;;;;;;;8.23;5.80;;;16.30;99.90;;;;;;5010349;28;20037;-77
2022/08/22 01:55:00;;;;;;;12.13;6.07;;;16.30;99.90;;;;;;5010788;28;20509;-77
2022/08/22 01:57:26;;;;;;;13.35;6.57;;;16.30;99.90;;;;;;5025754;28;20582;-77
2022/08/22 01:59:56;;;;;;;13.13;5.70;;;16.30;99.90;;;;;;5008404;28;20055;-77
2022/08/22 02:02:46;;;;;;;16.50;5.63;;;16.30;99.90;;;;;;5026292;28;20171;-77
2022/08/22 02:05:26;;;;;;;12.70;5.72;;;16.30;99.90;;;;;;5024005;28;20096;-77
2022/08/22 02:08:04;;;;;;;8.23;5.70;;;16.30;99.90;;;;;;5041974;28;20563;-77
2022/08/22 02:10:49;;;;;;;10.60;5.15;;;16.30;99.90;;;;;;5024693;28;20448;-77
2022/08/22 02:13:30;;;;;;;7.72;4.82;;;16.20;99.90;;;;;;5025151;28;20730;-77
2022/08/22 02:16:15;;;;;;;9.65;5.55;;;16.20;99.90;;;;;;5071199;28;20579;-77
2022/08/22 02:19:03;;;;;;;9.07;5.00;;;16.20;99.90;;;;;;5060429;28;20108;-77
2022/08/22 02:21:54;;;;;;;9.10;5.68;;;16.20;99.90;;;;;;5029005;28;20037;-76
2022/08/22 02:24:25;;;;;;;10.40;5.32;;;16.20;99.90;;;;;;5028064;28;20044;-77
2022/08/22 02:27:11;;;;;;;9.50;5.75;;;16.20;99.90;;;;;;5026487;28;20048;-77
2022/08/22 02:29:47;;;;;;;11.68;5.05;;;16.20;99.90;;;;;;5060680;28;20041;-77
2022/08/22 02:32:25;;;;;;;11.07;5.40;;;16.10;99.90;;;;;;5026349;28;20395;-76
2022/08/22 02:35:00;;;;;;;13.88;5.88;;;16.10;99.90;;;;;;5009175;28;20037;-77
2022/08/22 02:38:14;;;;;;;9.50;5.20;;;16.10;99.90;;;;;;5012412;28;20068;-77
2022/08/22 02:40:53;;;;;;;7.47;5.35;;;16.10;99.90;;;;;;4995758;28;20060;-77
2022/08/22 02:43:47;;;;;;;8.63;5.38;;;16.10;99.90;;;;;;4995201;28;20049;-76
2022/08/22 02:46:19;;;;;;;12.02;5.90;;;16.00;99.90;;;;;;5007019;28;20045;-77
2022/08/22 02:49:06;;;;;;;10.18;5.75;;;16.00;99.90;;;;;;5003926;28;20037;-77
2022/08/22 02:51:59;;;;;;;8.77;6.40;;;16.00;99.90;;;;;;5003721;28;20832;-77
2022/08/22 02:54:51;;;;;;;13.60;6.78;;;15.90;99.90;;;;;;5003898;28;20060;-77
2022/08/22 02:57:31;;;;;;;16.40;8.20;;;15.90;99.90;;;;;;5011280;28;20053;-77
2022/08/22 03:00:14;;;;;;;14.07;7.57;;;15.80;99.90;;;;;;4993734;28;20050;-77
2022/08/22 03:02:55;;;;;;;;;;;15.80;99.90;;;;;;5009440;28;21029;-77
2022/08/22 03:05:36;;;;;;;13.00;7.03;;;15.80;99.90;;;;;;4989003;28;21755;-76
2022/08/22 03:08:21;;;;;;;15.88;7.47;;;15.80;99.90;;;;;;5010029;28;20442;-76
2022/08/22 03:10:57;;;;;;;11.27;7.57;;;15.80;99.90;;;;;;4995220;28;20033;-76
2022/08/22 03:13:47;;;;;;;12.63;6.93;;;15.70;99.90;;;;;;5011814;28;20052;-76
2022/08/22 03:16:30;;;;;;;13.73;7.32;;;15.70;99.90;;;;;;5009929;28;20457;-76
2022/08/22 03:19:15;;;;;;;15.23;8.45;;;15.60;99.90;;;;;;4991390;28;20487;-76
2022/08/22 03:21:52;;;;;;;12.32;7.80;;;15.60;99.90;;;;;;4991622;28;20116;-77
2022/08/22 03:24:48;;;;;;;16.13;7.68;;;15.60;99.90;;;;;;5000872;28;20045;-77
2022/08/22 03:27:17;;;;;;;12.80;7.85;;;15.60;99.90;;;;;;5002447;28;20426;-77
2022/08/22 03:29:49;;;;;;;15.57;8.02;;;15.60;99.90;;;;;;4994251;28;20103;-77
2022/08/22 03:32:21;;;;;;;13.00;7.43;;;15.50;99.90;;;;;;4993969;28;20061;-77
2022/08/22 03:35:02;;;;;;;14.43;7.05;;;15.60;99.90;;;;;;5029306;28;20124;-77
2022/08/22 03:37:49;;;;;;;13.00;6.90;;;15.60;99.90;;;;;;5027313;28;20566;-76
2022/08/22 03:40:26;;;;;;;15.60;7.75;;;15.60;99.90;;;;;;5011858;28;20081;-76
2022/08/22 03:43:04;;;;;;;14.70;7.32;;;15.60;99.90;;;;;;5044596;28;20045;-76
2022/08/22 03:45:38;;;;;;;14.35;7.38;;;15.70;99.90;;;;;;5029528;28;20123;-76
2022/08/22 03:48:27;;;;;;;11.88;7.32;;;15.70;99.90;;;;;;5026641;28;20037;-76
2022/08/22 03:51:30;;;;;;;13.88;7.13;;;15.70;99.90;;;;;;5011950;28;20741;-77
2022/08/22 03:54:33;;;;;;;16.83;8.30;;;15.70;99.90;;;;;;5027391;28;20482;-76
2022/08/22 03:57:20;;;;;;;12.60;7.07;;;15.70;99.90;;;;;;5026402;28;20044;-76
2022/08/22 04:00:11;;;;;;;17.60;7.30;;;15.70;99.90;;;;;;5024319;28;20040;-76
2022/08/22 04:02:53;;;;;;;14.63;7.22;;;15.70;99.90;;;;;;5028225;28;20052;-76
2022/08/22 04:05:32;;;;;;;12.30;7.28;;;15.70;99.90;;;;;;5027564;28;20055;-76
2022/08/22 04:08:32;;;;;;;15.23;7.68;;;15.80;99.90;;;;;;5011727;28;20048;-76
2022/08/22 04:11:10;;;;;;;11.77;7.22;;;15.80;99.90;;;;;;5044994;28;20033;-76
2022/08/22 04:14:02;;;;;;;17.25;8.00;;;15.80;99.90;;;;;;5027276;28;20033;-76
2022/08/22 04:16:46;;;;;;;20.40;7.70;;;15.80;99.90;;;;;;5043275;28;20049;-76
2022/08/22 04:19:22;;;;;;;14.73;7.43;;;15.80;99.90;;;;;;5008981;28;20044;-76
2022/08/22 04:22:12;;;;;;;10.15;7.57;;;15.80;99.90;;;;;;5026931;28;20052;-76
2022/08/22 04:24:52;;;;;;;18.85;8.05;;;15.80;99.90;;;;;;5011713;28;20041;-77
2022/08/22 04:27:48;;;;;;;15.27;7.15;;;15.80;99.90;;;;;;5026912;28;20063;-76
2022/08/22 04:30:30;;;;;;;14.15;7.32;;;15.70;99.90;;;;;;5007614;28;21723;-76
2022/08/22 04:33:00;;;;;;;11.95;7.43;;;15.70;99.90;;;;;;5028382;28;20049;-76
2022/08/22 04:35:41;;;;;;;10.32;7.32;;;15.70;99.90;;;;;;5026722;28;20044;-77
2022/08/22 04:38:21;;;;;;;13.52;7.47;;;15.70;99.90;;;;;;5027777;28;20068;-76
2022/08/22 04:40:57;;;;;;;14.90;7.38;;;15.70;99.90;;;;;;5043110;28;20135;-76
2022/08/22 04:43:47;;;;;;;15.68;7.43;;;15.60;99.90;;;;;;5012325;28;20130;-76
2022/08/22 04:46:33;;;;;;;14.90;8.45;;;15.70;99.90;;;;;;5012278;28;20041;-77
2022/08/22 04:49:05;;;;;;;12.60;7.38;;;15.60;99.90;;;;;;5027810;28;20037;-76
2022/08/22 04:51:31;;;;;;;16.85;7.32;;;15.60;99.90;;;;;;5028618;28;20041;-77
2022/08/22 04:54:19;;;;;;;15.43;8.18;;;15.60;99.90;;;;;;5012079;28;20036;-76
2022/08/22 04:57:18;;;;;;;13.10;7.72;;;15.70;99.90;;;;;;5028180;28;20143;-76
2022/08/22 04:59:44;;;;;;;13.10;8.13;;;15.70;99.90;;;;;;4978899;28;20069;-76
2022/08/22 05:02:19;;;;;;;13.30;7.53;;;15.70;99.90;;;;;;5017044;28;20044;-76
2022/08/22 05:04:57;;;;;;;14.07;7.78;;;15.70;99.90;;;;;;5056319;28;20083;-77
2022/08/22 05:07:34;;;;;;;16.35;7.95;;;15.70;99.90;;;;;;5050820;28;20036;-77
2022/08/22 05:10:10;;;;;;;11.85;7.40;;;15.70;99.90;;;;;;5012583;28;20045;-77
2022/08/22 05:12:40;;;;;;;14.35;7.63;;;15.70;99.90;;;;;;5014214;28;20051;-77
2022/08/22 05:15:17;;;;;;;11.50;7.57;;;15.70;99.90;;;;;;5027894;28;20090;-76
2022/08/22 05:17:47;;;;;;;10.25;7.43;;;15.70;99.90;;;;;;5027320;28;20044;-76
2022/08/22 05:20:20;;;;;;;12.65;7.93;;;15.80;99.90;;;;;;5025703;28;20063;-77
2022/08/22 05:22:50;;;;;;;14.38;7.65;;;15.80;99.90;;;;;;5027132;28;20047;-77
2022/08/22 05:25:28;;;;;;;14.43;8.20;;;15.80;99.90;;;;;;5026649;28;20045;-77
2022/08/22 05:28:04;;;;;;;19.58;7.85;;;15.80;99.90;;;;;;5027068;28;20270;-77
2022/08/22 05:30:32;;;;;;;14.40;8.40;;;15.80;99.90;;;;;;5027319;28;20045;-77
2022/08/22 05:33:13;;;;;;;11.52;7.90;;;15.90;99.90;;;;;;5010514;28;20045;-77
2022/08/22 05:35:42;;;;;;;11.82;7.65;;;15.90;99.90;;;;;;5009267;28;20159;-77
2022/08/22 05:38:13;;;;;;;12.55;7.85;;;15.90;99.90;;;;;;5027398;28;20127;-77
2022/08/22 05:40:40;;;;;;;14.10;7.70;;;15.90;99.90;;;;;;5025232;28;20246;-77
2022/08/22 05:43:10;;;;;;;13.68;7.85;;;16.00;99.90;;;;;;5027653;28;20540;-77
2022/08/22 05:45:38;;;;;;;12.75;8.00;;;16.00;99.90;;;;;;5025998;28;20103;-77
2022/08/22 05:48:15;;;;;;;18.33;9.02;;;16.00;99.90;;;;;;5026775;28;20128;-77
2022/08/22 05:50:48;;;;;;;14.88;8.52;;;16.00;99.90;;;;;;5026545;28;20171;-77
2022/08/22 05:53:36;;;;;;;14.38;8.63;;;16.10;99.90;;;;;;5027883;28;20044;-79
2022/08/22 05:56:14;;;;;;;15.05;8.15;;;16.10;99.90;;;;;;5027470;28;20048;-80
2022/08/22 05:58:58;;;;;;;13.00;8.27;;;16.20;99.90;;;;;;5010946;28;20498;-77
2022/08/22 06:01:42;;;;;;;13.27;8.07;;;16.20;99.90;;;;;;5008765;28;20093;-77
2022/08/22 06:04:26;;;;;;;15.10;8.40;;;16.20;99.90;;;;;;5024116;28;20041;-77
2022/08/22 06:07:08;;;;;;;13.00;8.48;;;16.20;99.90;;;;;;5024208;28;20534;-77
2022/08/22 06:09:46;;;;;;;13.50;8.87;;;16.20;99.90;;;;;;5025514;28;20037;-77
2022/08/22 06:12:18;;;;;;;16.35;8.07;;;16.30;99.90;;;;;;5008652;28;20037;-78
2022/08/22 06:15:03;;;;;;;12.05;8.07;;;16.30;99.90;;;;;;5010562;28;20234;-77
2022/08/22 06:17:41;;;;;;;12.55;8.05;;;16.30;99.90;;;;;;5029649;28;20047;-78
2022/08/22 06:20:08;;;;;;;16.45;8.38;;;16.30;99.90;;;;;;5027888;28;20037;-80
2022/08/22 06:22:39;;;;;;;16.00;8.30;;;16.40;99.90;;;;;;5014743;28;20341;-81
2022/08/22 06:25:17;;;;;;;14.43;8.73;;;16.40;99.90;;;;;;5028785;28;20048;-80
2022/08/22 06:27:47;;;;;;;16.60;8.20;;;16.40;99.90;;;;;;5028759;28;20041;-80
2022/08/22 06:30:15;;;;;;;15.20;10.30;;;16.50;99.90;;;;;;5014116;28;20037;-79
2022/08/22 06:32:47;;;;;;;14.77;9.23;;;16.50;99.90;;;;;;5025593;28;20116;-80
2022/08/22 06:39:00;;;;;;;16.70;8.80;;;16.60;99.90;;;;;;5005690;28;20425;-77
2022/08/22 06:41:29;;;;;;;12.20;8.40;;;16.60;99.90;;;;;;5023108;28;20059;-78
2022/08/22 06:43:56;;;;;;;17.75;8.93;;;16.70;99.90;;;;;;5021843;28;20040;-77
2022/08/22 06:46:25;;;;;;;12.98;7.53;;;16.70;99.90;;;;;;5018468;28;20065;-78
2022/08/22 06:48:54;;;;;;;14.25;8.18;;;16.80;99.90;;;;;;5017087;28;20116;-77
2022/08/22 06:51:23;;;;;;;15.65;8.15;;;16.90;99.90;;;;;;5022980;28;20048;-78
2022/08/22 06:53:55;;;;;;;15.35;9.05;;;16.90;99.90;;;;;;5017591;28;20048;-77
2022/08/22 06:56:28;;;;;;;17.85;9.07;;;17.00;99.90;;;;;;5020777;28;20052;-77
2022/08/22 06:58:59;;;;;;;12.15;7.95;;;17.10;99.90;;;;;;5036206;28;20496;-77
2022/08/22 07:01:31;;;;;;;17.20;9.02;;;17.20;99.90;;;;;;5034522;28;20139;-77
2022/08/22 07:04:09;;;;;;;17.35;8.70;;;17.20;99.90;;;;;;5032701;28;20043;-77
2022/08/22 07:06:40;;;;;;;19.63;8.73;;;17.30;99.90;;;;;;5018526;28;20393;-78
2022/08/22 07:09:12;;;;;;;14.45;7.32;;;17.30;99.90;;;;;;5034848;28;20033;-78
2022/08/22 07:11:40;;;;;;;12.73;6.60;;;17.30;99.90;;;;;;5010556;28;20732;-77
2022/08/22 07:14:16;;;;;;;15.93;7.78;;;17.40;99.90;;;;;;5019758;28;20166;-77
2022/08/22 07:16:59;;;;;;;17.20;7.28;;;17.40;99.90;;;;;;5038993;28;20055;-77
2022/08/22 07:19:29;;;;;;;13.98;7.07;;;17.40;99.90;;;;;;5018269;28;20048;-77
2022/08/22 07:21:56;;;;;;;13.95;6.43;;;17.50;99.90;;;;;;5013743;28;20397;-77
2022/08/22 07:24:27;;;;;;;14.30;7.32;;;17.60;99.90;;;;;;5003260;28;20182;-77
2022/08/22 07:26:56;;;;;;;15.00;6.55;;;17.60;99.90;;;;;;5034254;28;20037;-77
2022/08/22 07:29:43;;;;;;;11.63;6.25;;;17.60;99.90;;;;;;5031222;28;20374;-76
2022/08/22 07:32:26;;;;;;;11.88;6.70;;;17.70;99.90;;;;;;5022240;28;20039;-76
2022/08/22 07:35:22;;;;;;;11.27;6.32;;;17.80;99.90;;;;;;5036775;28;20056;-76
2022/08/22 07:38:28;;;;;;;14.77;6.75;;;17.80;99.90;;;;;;5016509;28;20076;-76
2022/08/22 07:40:57;;;;;;;11.43;6.20;;;17.80;99.90;;;;;;5015686;28;20479;-77
2022/08/22 07:43:39;;;;;;;17.17;6.85;;;17.90;99.90;;;;;;5034173;28;20788;-77
2022/08/22 07:46:36;;;;;;;14.93;5.93;;;17.90;99.90;;;;;;5038037;28;20062;-77
2022/08/22 07:49:14;;;;;;;16.83;6.65;;;18.00;99.90;;;;;;5045194;28;20080;-77
2022/08/22 07:51:55;;;;;;;11.90;5.93;;;18.00;99.90;;;;;;5018030;28;20370;-77
2022/08/22 07:54:49;;;;;;;9.10;5.43;;;18.00;99.90;;;;;;5023552;28;20047;-77
2022/08/22 07:57:30;;;;;;;14.35;5.88;;;18.20;99.90;;;;;;5029332;28;20048;-77
2022/08/22 07:59:59;;;;;;;13.60;5.47;;;18.20;99.90;;;;;;5017169;28;20110;-78
2022/08/22 08:02:26;;;;;;;13.32;5.63;;;18.30;99.90;;;;;;5042795;28;20157;-78
2022/08/22 08:04:55;;;;;;;9.98;5.95;;;18.40;99.90;;;;;;5025385;28;20041;-79
2022/08/22 08:07:25;;;;;;;14.85;5.28;;;18.40;99.90;;;;;;5024714;28;20045;-79
2022/08/22 08:10:08;;;;;;;11.82;5.70;;;18.50;99.90;;;;;;5024490;28;20064;-80
2022/08/22 08:12:39;;;;;;;15.05;5.50;;;18.60;99.90;;;;;;5034582;28;20052;-79
2022/08/22 08:15:09;;;;;;;11.18;5.97;;;18.70;99.90;;;;;;5011411;28;20092;-80
2022/08/22 08:17:37;;;;;;;14.65;5.68;;;18.70;99.90;;;;;;5011518;28;20600;-79
2022/08/22 08:20:10;;;;;;;12.43;5.25;;;18.80;99.90;;;;;;5009342;28;20417;-79
2022/08/22 08:22:39;;;;;;;16.33;6.15;;;19.00;99.90;;;;;;5016636;28;20048;-80
2022/08/22 08:25:07;;;;;;;12.10;5.50;;;19.10;99.90;;;;;;5017167;28;20052;-83
2022/08/22 08:30:52;;;;;;;17.23;6.57;;;19.30;99.90;;;;;;5049819;28;20115;-91
2022/08/22 08:33:22;;;;;;;15.23;6.97;;;19.30;99.90;;;;;;5019455;28;20045;-91
2022/08/22 08:36:23;;;;;;;14.90;7.13;;;19.30;99.90;;;;;;5031773;28;20060;-91
2022/08/22 08:39:02;;;;;;;15.27;7.35;;;19.40;99.90;;;;;;5036649;28;20506;-91
2022/08/22 08:41:32;;;;;;;13.50;6.95;;;19.40;99.90;;;;;;5013455;28;20090;-90
2022/08/22 08:44:45;;;;;;;19.00;7.97;;;19.40;99.90;;;;;;5016815;28;21850;-91
2022/08/22 08:47:23;;;;;;;20.20;8.02;;;19.40;99.90;;;;;;5007351;28;20041;-90
2022/08/22 08:50:12;;;;;;;15.32;7.32;;;19.50;99.90;;;;;;5003112;28;20033;-90
2022/08/22 08:53:19;;;;;;;16.25;7.20;;;19.60;99.90;;;;;;5010083;28;20124;-90
2022/08/22 08:55:53;;;;;;;13.00;6.82;;;19.60;99.90;;;;;;5021500;28;20687;-93
2022/08/22 08:58:37;;;;;;;10.07;5.85;;;19.70;99.90;;;;;;5028163;28;20494;-92
2022/08/22 09:01:25;;;;;;;12.20;5.80;;;19.80;99.90;;;;;;5029946;28;20048;-92
2022/08/22 09:04:20;;;;;;;15.90;6.32;;;19.90;99.90;;;;;;5033838;28;20170;-92
2022/08/22 09:07:10;;;;;;;16.35;6.13;;;20.10;99.90;;;;;;5018278;28;20037;-91
2022/08/22 09:09:42;;;;;;;11.65;5.00;;;20.10;99.90;;;;;;5031599;28;20408;-92
2022/08/22 09:12:24;;;;;;;11.40;4.63;;;20.20;99.90;;;;;;5010952;28;20090;-91
2022/08/22 09:15:12;;;;;;;13.98;4.30;;;20.10;99.90;;;;;;5028866;28;20029;-92
2022/08/22 09:17:37;;;;;;;12.93;4.53;;;20.20;99.90;;;;;;5048736;28;20045;-92
2022/08/22 09:20:33;;;;;;;7.45;3.80;;;20.30;99.90;;;;;;5009372;28;20044;-91
2022/08/22 09:23:36;;;;;;;13.70;4.22;;;20.30;99.90;;;;;;5004042;28;20070;-91
2022/08/22 09:26:29;;;;;;;13.82;6.07;;;20.30;99.90;;;;;;5029304;28;21240;-91
2022/08/22 09:29:03;;;;;;;;;;;20.40;99.90;;;;;;4997023;28;20044;-92
2022/08/22 09:31:46;;;;;;;12.82;4.82;;;20.50;99.90;;;;;;5013347;28;20015;-91
2022/08/22 09:34:36;;;;;;;9.23;4.60;;;20.50;99.90;;;;;;5024366;28;20599;-90
2022/08/22 09:37:11;;;;;;;14.77;6.05;;;20.60;99.90;;;;;;4991533;28;20064;-89
2022/08/22 09:39:58;;;;;;;11.48;5.05;;;20.70;99.90;;;;;;4987574;28;20049;-90
2022/08/22 09:42:53;;;;;;;10.63;4.30;;;20.80;99.90;;;;;;4988230;28;20717;-91
2022/08/22 09:45:54;;;;;;;10.32;3.95;;;20.90;99.90;;;;;;4973254;28;20328;-90
2022/08/22 09:48:58;;;;;;;8.90;4.22;;;21.10;99.90;;;;;;4996867;28;20054;-90
2022/08/22 09:51:30;;;;;;;12.00;4.25;;;21.20;99.90;;;;;;4979881;28;20045;-90
2022/08/22 09:54:23;;;;;;;11.43;3.65;;;21.30;99.90;;;;;;4988833;28;20041;-91
2022/08/22 09:57:21;;;;;;;11.13;3.55;;;21.30;99.90;;;;;;4986715;28;20069;-90
2022/08/22 10:00:12;;;;;;;7.30;3.17;;;21.40;99.90;;;;;;4966766;28;20053;-90
2022/08/22 10:03:18;;;;;;;9.85;3.83;;;21.50;99.90;;;;;;4998140;28;20522;-90
2022/08/22 10:06:10;;;;;;;9.85;4.10;;;21.60;99.90;;;;;;4965394;28;20060;-91
2022/08/22 10:08:41;;;;;;;10.23;3.63;;;21.80;99.90;;;;;;4985017;28;20168;-90
2022/08/22 10:11:26;;;;;;;8.88;4.13;;;21.80;99.90;;;;;;4988457;28;20037;-91
2022/08/22 10:14:01;;;;;;;8.77;3.50;;;21.90;99.90;;;;;;4974874;28;20094;-80
2022/08/22 10:16:48;;;;;;;10.23;3.13;;;21.90;99.90;;;;;;4991857;28;20357;-81
2022/08/22 10:19:30;;;;;;;10.73;3.10;;;21.90;99.90;;;;;;4993731;28;20528;-81
2022/08/22 10:22:21;;;;;;;8.20;3.15;;;21.80;99.90;;;;;;4994264;28;20041;-81
2022/08/22 10:24:53;;;;;;;9.45;3.10;;;21.90;99.90;;;;;;4988101;28;20667;-81
2022/08/22 10:27:43;;;;;;;7.47;3.03;;;21.90;99.90;;;;;;4989792;28;20052;-81
2022/08/22 10:30:26;;;;;;;7.10;2.55;;;21.90;99.90;;;;;;4987954;28;20040;-81
2022/08/22 10:33:04;;;;;;;12.40;4.30;;;21.90;99.90;;;;;;4989019;28;20072;-81
2022/08/22 10:35:43;;;;;;;6.25;2.80;;;21.90;99.90;;;;;;5010392;28;20113;-81
2022/08/22 10:38:34;;;;;;;7.85;2.72;;;21.90;99.90;;;;;;5003279;28;20052;-80
2022/08/22 10:41:26;;;;;;;6.35;2.50;;;21.90;99.90;;;;;;4996002;28;20041;-81
2022/08/22 10:44:12;;;;;;;6.80;2.70;;;22.00;99.90;;;;;;4998768;28;20064;-81
2022/08/22 10:46:55;;;;;;;6.55;2.75;;;22.10;99.90;;;;;;4994643;28;20046;-81
2022/08/22 10:49:31;;;;;;;9.25;2.55;;;22.10;99.90;;;;;;4996022;28;20506;-81
2022/08/22 10:52:13;;;;;;;7.25;2.60;;;22.20;99.90;;;;;;4996191;28;20114;-81
2022/08/22 10:55:11;;;;;;;8.48;3.28;;;22.30;99.90;;;;;;4978940;28;20425;-81
2022/08/22 10:57:50;;;;;;;8.85;3.67;;;22.40;99.90;;;;;;5013082;28;20044;-81
2022/08/22 11:00:42;;;;;;;7.20;2.95;;;22.50;99.90;;;;;;4992724;28;20049;-81
2022/08/22 11:03:25;;;;;;;7.53;2.50;;;22.70;99.90;;;;;;4994013;28;20048;-81
2022/08/22 11:06:12;;;;;;;8.85;2.80;;;22.80;99.90;;;;;;5001769;28;20045;-81
2022/08/22 11:09:11;;;;;;;7.40;2.60;;;22.90;99.90;;;;;;4991805;28;20076;-82
2022/08/22 11:12:01;;;;;;;7.00;2.85;;;22.90;99.90;;;;;;4982425;28;20041;-82
2022/08/22 11:14:52;;;;;;;5.88;2.75;;;23.00;99.90;;;;;;4979654;28;20037;-81
2022/08/22 11:17:36;;;;;;;11.07;3.28;;;23.10;99.90;;;;;;5002076;28;20069;-81
2022/08/22 11:20:18;;;;;;;7.80;2.95;;;23.10;99.90;;;;;;4992655;28;20128;-81
2022/08/22 11:22:58;;;;;;;9.03;3.00;;;23.20;99.90;;;;;;4982199;28;20045;-81
2022/08/22 11:25:45;;;;;;;8.60;3.25;;;23.40;99.90;;;;;;4980761;28;20033;-81
2022/08/22 11:28:17;;;;;;;10.57;3.35;;;23.50;99.90;;;;;;4997820;28;20065;-81
2022/08/22 11:31:02;;;;;;;11.20;3.30;;;23.70;99.90;;;;;;4994204;28;20030;-81
2022/08/22 11:33:51;;;;;;;7.03;3.15;;;23.70;99.90;;;;;;5003135;28;20137;-81
2022/08/22 11:36:26;;;;;;;16.35;3.20;;;23.60;99.90;;;;;;5003890;28;20230;-81
2022/08/22 11:39:05;;;;;;;8.25;3.15;;;23.60;99.90;;;;;;4992953;28;20041;-81
2022/08/22 11:42:07;;;;;;;7.70;3.88;;;23.50;99.90;;;;;;4986028;28;20921;-81
2022/08/22 11:44:43;;;;;;;7.90;3.55;;;23.50;99.90;;;;;;4995562;28;20046;-81
2022/08/22 11:47:15;;;;;;;7.65;3.10;;;23.50;99.90;;;;;;4996879;28;20041;-80
2022/08/22 11:49:47;;;;;;;;;;;23.50;99.90;;;;;;4995314;28;20091;-80
2022/08/22 11:52:22;;;;;;;8.85;3.83;;;23.50;99.90;;;;;;4992961;28;20447;-81
2022/08/22 11:55:14;;;;;;;9.48;3.13;;;23.70;99.90;;;;;;4995432;28;20037;-81
2022/08/22 11:57:55;;;;;;;12.52;3.28;;;23.80;99.90;;;;;;4987205;28;20045;-81
2022/08/22 12:00:31;;;;;;;7.82;3.00;;;23.90;99.90;;;;;;4975327;28;20045;-81
2022/08/22 12:03:18;;;;;;;6.03;3.00;;;24.00;99.90;;;;;;4980596;28;20037;-81
2022/08/22 12:05:53;;;;;;;7.47;2.72;;;24.10;99.90;;;;;;4985665;28;20615;-81
2022/08/22 12:08:25;;;;;;;6.00;2.72;;;24.30;99.90;;;;;;4978967;28;20091;-81
2022/08/22 12:11:09;;;;;;;8.48;3.38;;;24.50;99.90;;;;;;4984266;28;20462;-81
2022/08/22 12:13:53;;;;;;;9.57;3.30;;;24.70;99.90;;;;;;5003783;28;20045;-81
2022/08/22 12:16:31;;;;;;;8.43;3.10;;;24.90;99.40;;;;;;4994174;28;20114;-81
2022/08/22 12:19:24;;;;;;;9.75;3.40;;;25.00;99.70;;;;;;4993826;28;20046;-81
2022/08/22 12:22:08;;;;;;;10.27;3.72;;;25.20;98.70;;;;;;4962183;28;20053;-81
2022/08/22 12:24:44;;;;;;;9.32;3.10;;;25.30;98.50;;;;;;4994092;28;20180;-82
2022/08/22 12:27:22;;;;;;;9.73;4.00;;;25.40;98.70;;;;;;4994354;28;20475;-81
2022/08/22 12:30:01;;;;;;;5.85;2.85;;;25.30;96.90;;;;;;5001668;28;20470;-81
2022/08/22 12:32:47;;;;;;;22.25;3.42;;;25.30;98.30;;;;;;4992749;28;20871;-81
2022/08/22 12:35:22;;;;;;;11.80;3.28;;;25.30;97.40;;;;;;4978669;28;20120;-81
2022/08/22 12:38:00;;;;;;;9.73;3.00;;;25.40;98.00;;;;;;4986906;28;20052;-80
2022/08/22 12:40:41;;;;;;;9.07;3.33;;;25.30;97.70;;;;;;4993182;28;20045;-80
2022/08/22 12:43:25;;;;;;;9.15;3.38;;;25.40;97.60;;;;;;4985199;28;20041;-80
2022/08/22 12:46:03;;;;;;;6.30;2.88;;;25.30;96.20;;;;;;4998488;28;20513;-81
2022/08/22 12:48:38;;;;;;;7.55;3.08;;;25.20;97.20;;;;;;4992826;28;20041;-81
2022/08/22 12:51:29;;;;;;;6.63;3.20;;;25.20;97.20;;;;;;4995734;28;20171;-80
2022/08/22 12:54:25;;;;;;;9.10;3.38;;;25.10;96.90;;;;;;4994571;28;20038;-80
2022/08/22 12:57:29;;;;;;;6.88;3.00;;;25.00;97.10;;;;;;4995274;28;20532;-80
2022/08/22 13:00:05;;;;;;;8.18;3.28;;;25.00;97.20;;;;;;4991431;28;20595;-80
2022/08/22 13:02:34;;;;;;;8.18;3.33;;;25.10;97.50;;;;;;4982023;28;20073;-80
2022/08/22 13:05:19;;;;;;;8.80;2.97;;;25.00;97.40;;;;;;4980317;28;20049;-81
2022/08/22 13:07:53;;;;;;;9.18;2.92;;;25.00;97.60;;;;;;4995229;28;20046;-80
2022/08/22 13:10:42;;;;;;;7.65;2.90;;;25.00;97.20;;;;;;4991488;28;20084;-80
2022/08/22 13:13:23;;;;;;;5.82;3.20;;;25.10;97.40;;;;;;5000589;28;20033;-80
2022/08/22 13:16:21;;;;;;;8.50;3.60;;;25.30;97.20;;;;;;5000800;28;20091;-80
2022/08/22 13:18:56;;;;;;;8.02;3.65;;;25.40;96.30;;;;;;4997590;28;20062;-80
2022/08/22 13:21:26;;;;;;;9.38;3.30;;;25.50;97.20;;;;;;4980985;28;20427;-80
2022/08/22 13:23:56;;;;;;;5.78;3.03;;;25.60;96.80;;;;;;4996750;28;20041;-80
2022/08/22 13:26:26;;;;;;;8.18;3.03;;;25.50;96.40;;;;;;5011181;28;20089;-80
2022/08/22 13:29:03;;;;;;;5.28;2.65;;;25.50;96.30;;;;;;4994046;28;20046;-80
2022/08/22 13:31:39;;;;;;;6.30;3.00;;;25.50;96.20;;;;;;4981533;28;20041;-80
2022/08/22 13:34:24;;;;;;;6.70;3.33;;;25.30;96.20;;;;;;4991788;28;20081;-81
2022/08/22 13:36:56;;;;;;;10.55;3.50;;;25.30;96.00;;;;;;5011825;28;20041;-81
2022/08/22 13:39:26;;;;;;;6.82;3.17;;;25.20;96.20;;;;;;4984299;28;20056;-81
2022/08/22 13:42:06;;;;;;;7.07;3.05;;;25.20;96.30;;;;;;4994548;28;20037;-80
2022/08/22 13:44:35;;;;;;;8.90;3.38;;;25.10;96.60;;;;;;4977583;28;20060;-80
2022/08/22 13:47:07;;;;;;;8.05;2.60;;;25.10;96.30;;;;;;4989264;28;20045;-80
2022/08/22 13:49:42;;;;;;;11.38;3.17;;;25.00;96.20;;;;;;4981182;28;20036;-80
2022/08/22 13:52:14;;;;;;;9.48;3.40;;;25.10;96.00;;;;;;4973091;28;20065;-80
2022/08/22 13:54:52;;;;;;;11.05;3.03;;;25.10;96.20;;;;;;4971553;28;20213;-80
2022/08/22 13:57:21;;;;;;;7.57;3.60;;;25.10;96.30;;;;;;4988506;28;20273;-80
2022/08/22 14:00:28;;;;;;;8.82;2.80;;;25.20;96.30;;;;;;4981568;28;20049;-80